Terminal Aerodrome Forecast
Issued by NWS

Home | Current Version | Previous Version | Text Only | Print | Product List | Glossary On
Versions: 1 2 3 4 5 6 7 8 9 10 11 12 13 14 15 16 17 18 19 20 21 22 23
869
FTUS41 KILN 221120
TAFLUK
TAF
KLUK 221120Z 2212/2312 00000KT 1/4SM FG VV002
      TEMPO 2212/2214 3SM BR BKN150
     FM221400 06003KT P6SM FEW080 BKN150
     FM222100 06006KT P6SM VCSH SCT025 OVC080
     FM230000 03010KT 5SM -SHRA BR OVC020
     FM231000 36010KT 3SM -SHRA BR OVC012=

USA.gov is the U.S. government's official web portal to all federal, state and local government web resources and services.